createdAt,value
2019-06-20T04:03:51.131Z,5.625
2019-06-20T04:07:19.082Z,5.625
2019-06-20T04:10:54.579Z,5.625
2019-06-20T04:14:22.550Z,5.625
2019-06-20T04:17:52.566Z,5.625
2019-06-20T04:21:20.515Z,5.625
2019-06-20T04:24:48.472Z,5.625
2019-06-20T04:28:16.440Z,5.625
2019-06-20T04:31:44.417Z,5.625
2019-06-20T04:35:12.359Z,5.625
2019-06-20T04:38:40.374Z,5.625
2019-06-20T04:42:08.361Z,11.25
2019-06-20T04:45:38.281Z,11.25
2019-06-20T04:49:06.293Z,11.25
2019-06-20T04:52:34.244Z,11.25
2019-06-20T04:56:05.507Z,11.25
2019-06-20T04:59:32.192Z,11.25
2019-06-20T05:03:00.222Z,11.25
2019-06-20T05:06:28.165Z,11.25
2019-06-20T05:09:56.118Z,11.25
2019-06-20T05:13:24.103Z,11.25
2019-06-20T05:16:52.079Z,11.25
2019-06-20T05:20:20.077Z,11.25
2019-06-20T05:23:48.062Z,11.25
2019-06-20T05:27:16.178Z,11.25
2019-06-20T05:30:44.205Z,11.25
2019-06-20T05:34:12.207Z,11.25
2019-06-20T05:37:40.220Z,11.25
2019-06-20T05:41:08.258Z,11.25
2019-06-20T05:44:37.239Z,11.25
2019-06-20T05:48:05.233Z,11.25
2019-06-20T05:51:33.200Z,11.25
2019-06-20T05:55:01.200Z,11.25
2019-06-20T05:58:29.221Z,11.25
2019-06-20T06:01:59.253Z,11.25
2019-06-20T06:05:27.218Z,16.875
2019-06-20T06:08:56.177Z,16.875
2019-06-20T06:12:24.143Z,22.5
2019-06-20T06:15:52.103Z,28.125
2019-06-20T06:19:20.077Z,28.125
2019-06-20T06:22:49.169Z,33.75
2019-06-20T06:26:17.145Z,28.125
2019-06-20T06:29:45.098Z,33.75
2019-06-20T06:33:13.071Z,33.75
2019-06-20T06:36:41.051Z,28.125
2019-06-20T06:40:09.007Z,22.5
2019-06-20T06:43:41.833Z,28.125
2019-06-20T06:47:08.955Z,28.125
2019-06-20T06:50:36.904Z,33.75
2019-06-20T06:54:04.875Z,33.75
2019-06-20T06:57:32.882Z,33.75
2019-06-20T07:01:00.836Z,33.75
2019-06-20T07:04:29.646Z,28.125
2019-06-20T07:07:57.609Z,28.125
2019-06-20T07:11:25.584Z,33.75
2019-06-20T07:14:53.566Z,39.375
2019-06-20T07:18:21.517Z,39.375
2019-06-20T07:21:49.506Z,33.75
2019-06-20T07:25:17.543Z,22.5
2019-06-20T07:28:45.517Z,22.5
2019-06-20T07:32:13.479Z,22.5
2019-06-20T07:35:43.414Z,22.5
2019-06-20T07:39:11.384Z,16.875
2019-06-20T07:42:39.408Z,22.5
2019-06-20T07:46:07.407Z,22.5
2019-06-20T07:49:35.401Z,22.5
2019-06-20T07:53:05.359Z,28.125
2019-06-20T07:56:33.322Z,28.125
2019-06-20T08:00:01.286Z,28.125
2019-06-20T08:03:29.261Z,28.125
2019-06-20T08:06:57.327Z,33.75
2019-06-20T08:10:25.291Z,33.75
2019-06-20T08:13:53.275Z,33.75
2019-06-20T08:17:34.674Z,33.75
2019-06-20T08:20:56.124Z,33.75
2019-06-20T08:24:24.205Z,33.75
2019-06-20T08:27:52.126Z,33.75
2019-06-20T08:31:20.064Z,33.75
2019-06-20T08:34:48.037Z,22.5
2019-06-20T08:38:16.005Z,39.375
2019-06-20T08:41:43.954Z,39.375
2019-06-20T08:45:11.928Z,39.375
2019-06-20T08:48:40.008Z,33.75
2019-06-20T08:52:09.966Z,39.375
2019-06-20T08:55:38.921Z,39.375
2019-06-20T08:59:20.656Z,50.625
2019-06-20T09:02:37.866Z,61.875
2019-06-20T09:06:06.930Z,61.875
2019-06-20T09:09:34.886Z,67.5
2019-06-20T09:13:03.773Z,61.875
2019-06-20T09:16:31.807Z,67.5
2019-06-20T09:20:00.234Z,73.125
2019-06-20T09:23:28.750Z,73.125
2019-06-20T09:26:59.338Z,56.25
2019-06-20T09:30:26.701Z,56.25
2019-06-20T09:34:00.675Z,50.625
2019-06-20T09:37:28.566Z,56.25
2019-06-20T09:40:57.524Z,45
2019-06-20T09:44:25.597Z,45
2019-06-20T09:47:58.112Z,50.625
2019-06-20T09:51:25.671Z,50.625
2019-06-20T09:54:56.117Z,61.875
2019-06-20T09:58:24.610Z,56.25
2019-06-20T10:01:58.448Z,56.25
2019-06-20T10:05:25.459Z,56.25
2019-06-20T10:08:57.430Z,61.875
2019-06-20T10:12:32.890Z,50.625
2019-06-20T10:16:00.857Z,50.625
2019-06-20T10:19:29.024Z,56.25
2019-06-20T10:22:57.965Z,56.25
2019-06-20T10:26:25.933Z,56.25
2019-06-20T10:29:54.889Z,67.5
2019-06-20T10:33:23.827Z,45
2019-06-20T10:36:52.368Z,56.25
2019-06-20T10:40:20.766Z,45
2019-06-20T10:43:52.689Z,39.375
2019-06-20T10:47:32.565Z,39.375
2019-06-20T10:50:56.540Z,56.25
2019-06-20T10:54:24.554Z,67.5
2019-06-20T10:57:54.471Z,50.625
2019-06-20T11:01:22.431Z,45
2019-06-20T11:04:51.371Z,45
2019-06-20T11:08:20.329Z,33.75
2019-06-20T11:11:51.258Z,28.125
2019-06-20T11:15:20.213Z,28.125
2019-06-20T11:18:49.165Z,28.125
2019-06-20T11:22:17.130Z,28.125
2019-06-20T11:25:48.284Z,28.125
2019-06-20T11:29:16.166Z,28.125
2019-06-20T11:32:45.772Z,33.75
2019-06-20T11:36:13.081Z,45
2019-06-20T11:39:43.983Z,50.625
2019-06-20T11:43:11.944Z,50.625
2019-06-20T11:46:42.867Z,45
2019-06-20T11:50:10.817Z,45
2019-06-20T11:53:42.628Z,39.375
2019-06-20T11:57:10.717Z,39.375
2019-06-20T12:00:38.694Z,39.375
2019-06-20T12:04:09.266Z,39.375
2019-06-20T12:07:35.624Z,39.375
2019-06-20T12:11:03.569Z,39.375
2019-06-20T12:14:31.545Z,45
2019-06-20T12:17:59.521Z,45
2019-06-20T12:21:27.485Z,45
2019-06-20T12:24:55.437Z,39.375
2019-06-20T12:28:24.406Z,39.375
2019-06-20T12:31:53.363Z,33.75
2019-06-20T12:35:22.340Z,33.75
2019-06-20T12:38:52.277Z,39.375
2019-06-20T12:42:20.242Z,39.375
2019-06-20T12:45:51.645Z,39.375
2019-06-20T12:49:19.141Z,61.875
2019-06-20T12:52:51.121Z,50.625
2019-06-20T12:56:19.075Z,39.375
2019-06-20T12:59:49.992Z,39.375
2019-06-20T13:03:18.972Z,39.375
2019-06-20T13:06:49.890Z,28.125
2019-06-20T13:10:17.901Z,16.875
2019-06-20T13:13:46.557Z,16.875
2019-06-20T13:17:14.700Z,39.375
2019-06-20T13:20:48.505Z,22.5
2019-06-20T13:24:24.906Z,11.25
2019-06-20T13:27:53.851Z,11.25
2019-06-20T13:31:21.808Z,0
2019-06-20T13:34:51.377Z,0
2019-06-20T13:38:19.349Z,5.625
2019-06-20T13:41:48.022Z,5.625
2019-06-20T13:45:17.285Z,5.625
2019-06-20T13:48:49.600Z,5.625
2019-06-20T13:52:18.157Z,5.625
2019-06-20T13:55:47.720Z,5.625
2019-06-20T13:59:15.056Z,56.25
2019-06-20T14:02:48.698Z,16.875
2019-06-20T14:06:16.964Z,5.625
2019-06-20T14:09:47.028Z,5.625
2019-06-20T14:13:19.742Z,0
2019-06-20T14:16:48.301Z,5.625
2019-06-20T14:20:16.852Z,16.875
2019-06-20T14:23:48.807Z,5.625
2019-06-20T14:27:18.790Z,5.625
2019-06-20T14:30:50.355Z,11.25
2019-06-20T14:34:17.718Z,67.5
2019-06-20T14:37:51.861Z,50.625
2019-06-20T14:41:29.782Z,388.125
2019-06-20T14:44:59.226Z,303.75
2019-06-20T14:48:29.927Z,382.5
2019-06-20T14:51:58.281Z,320.625
2019-06-20T14:55:26.364Z,258.75
2019-06-20T14:58:56.245Z,61.875
2019-06-20T15:02:37.827Z,45
2019-06-20T15:05:57.142Z,33.75
2019-06-20T15:09:26.116Z,28.125
2019-06-20T15:12:57.071Z,39.375
2019-06-20T15:16:28.651Z,50.625
2019-06-20T15:19:59.679Z,112.5
2019-06-20T15:23:29.712Z,118.125
2019-06-20T15:26:59.902Z,123.75
2019-06-20T15:30:28.954Z,73.125
2019-06-20T15:33:59.239Z,106.875
2019-06-20T15:37:27.243Z,118.125
2019-06-20T15:40:59.526Z,112.5
2019-06-20T15:44:28.618Z,123.75
2019-06-20T15:47:56.592Z,112.5
2019-06-20T15:51:26.303Z,106.875
2019-06-20T15:54:56.523Z,106.875
2019-06-20T15:58:24.639Z,101.25
2019-06-20T16:02:00.324Z,118.125
2019-06-20T16:05:29.513Z,281.25
2019-06-20T16:08:58.505Z,168.75
2019-06-20T16:12:33.536Z,118.125
2019-06-20T16:16:02.038Z,123.75
2019-06-20T16:19:30.061Z,78.75
2019-06-20T16:22:58.964Z,78.75
2019-06-20T16:26:26.911Z,84.375
2019-06-20T16:29:54.871Z,84.375
2019-06-20T16:33:26.805Z,95.625
2019-06-20T16:37:09.139Z,95.625
2019-06-20T16:40:25.685Z,90
2019-06-20T16:43:53.710Z,118.125
2019-06-20T16:47:21.726Z,67.5
2019-06-20T16:50:50.627Z,67.5
2019-06-20T16:54:18.629Z,50.625
2019-06-20T16:57:46.607Z,61.875
2019-06-20T17:01:14.585Z,61.875
2019-06-20T17:04:43.584Z,50.625
2019-06-20T17:08:11.699Z,45
2019-06-20T17:11:39.627Z,61.875
2019-06-20T17:15:08.816Z,45
2019-06-20T17:18:37.045Z,129.375
2019-06-20T17:22:06.216Z,129.375
2019-06-20T17:25:42.235Z,506.25
2019-06-20T17:29:12.273Z,450
2019-06-20T17:32:42.907Z,500.625
2019-06-20T17:36:18.442Z,534.375
2019-06-20T17:39:47.026Z,438.75
2019-06-20T17:43:15.333Z,568.125
2019-06-20T17:46:44.263Z,433.125
2019-06-20T17:50:13.523Z,365.625
2019-06-20T17:53:43.077Z,298.125
2019-06-20T17:57:13.049Z,163.125
2019-06-20T18:00:42.045Z,264.375
2019-06-20T18:08:32.125Z,191.25
2019-06-20T18:12:00.905Z,101.25
2019-06-20T18:15:33.049Z,78.75
2019-06-20T18:19:01.073Z,73.125
2019-06-20T18:22:29.829Z,45
2019-06-20T18:25:58.122Z,33.75
2019-06-20T18:29:27.016Z,28.125
2019-06-20T18:32:56.188Z,22.5
2019-06-20T18:36:24.545Z,22.5
2019-06-20T18:39:53.221Z,16.875
2019-06-20T18:43:22.127Z,16.875
2019-06-20T18:46:52.885Z,11.25
2019-06-20T18:50:22.473Z,11.25
2019-06-20T18:53:53.656Z,11.25
2019-06-20T18:57:21.756Z,11.25
2019-06-20T19:00:50.196Z,5.625
2019-06-20T19:04:18.513Z,5.625
2019-06-20T19:07:47.650Z,5.625
2019-06-20T19:11:15.764Z,5.625
2019-06-20T19:14:43.829Z,5.625
2019-06-20T19:18:12.586Z,5.625
2019-06-20T19:21:41.098Z,0
2019-06-20T19:25:09.773Z,0
2019-06-20T19:28:39.043Z,0
2019-06-20T19:32:17.005Z,0
2019-06-20T19:35:47.750Z,0
2019-06-20T19:39:15.876Z,0
2019-06-20T19:42:47.038Z,0
2019-06-20T19:46:18.173Z,0
2019-06-20T19:49:49.451Z,0
2019-06-20T19:53:19.123Z,0
2019-06-20T19:56:48.429Z,0
2019-06-20T20:00:16.562Z,0
2019-06-20T20:03:44.635Z,0
2019-06-20T20:07:15.795Z,0
2019-06-20T20:10:44.770Z,0
2019-06-20T20:14:14.832Z,0
2019-06-20T20:17:42.923Z,0
2019-06-20T20:21:10.994Z,0
2019-06-20T20:24:40.682Z,0
2019-06-20T20:28:09.023Z,0
2019-06-20T20:31:37.245Z,0
2019-06-20T20:35:05.407Z,0
2019-06-20T20:38:33.546Z,0
2019-06-20T20:42:01.749Z,0
2019-06-20T20:45:32.182Z,0
2019-06-20T20:49:01.422Z,0
2019-06-20T20:52:29.530Z,0
2019-06-20T20:55:57.639Z,0
2019-06-20T20:59:26.625Z,0
2019-06-20T21:02:54.721Z,0
2019-06-20T21:06:22.793Z,0
2019-06-20T21:09:50.924Z,0
2019-06-20T21:13:19.055Z,0
2019-06-20T21:16:47.196Z,0
2019-06-20T21:20:15.312Z,0
2019-06-20T21:23:43.506Z,0
2019-06-20T21:27:11.700Z,0
2019-06-20T21:30:40.813Z,0
2019-06-20T21:34:09.005Z,0
2019-06-20T21:37:37.338Z,0
2019-06-20T21:41:07.008Z,0
2019-06-20T21:44:35.130Z,0
2019-06-20T21:48:03.279Z,0
2019-06-20T21:51:31.369Z,0
2019-06-20T21:54:59.479Z,0
2019-06-20T21:58:27.713Z,0
